Time;durP1;ratioP1;P1;durP2;ratioP2;P2;SDS_P1;SDS_P2;PMS_P1;PMS_P2;Temp;Humidity;BMP_temperature;BMP_pressure;BME280_temperature;BME280_humidity;BME280_pressure;Samples;Min_cycle;Max_cycle;Signal;HPM_P1;HPM_P2
2022/05/10 00:00:15;;;;;;;2.95;2.75;;;;;;;;;;5073111;28;20031;-81
2022/05/10 00:02:41;;;;;;;9.15;2.80;;;;;;;;;;5079600;28;20013;-80
2022/05/10 00:05:07;;;;;;;7.03;3.20;;;;;;;;;;5079892;28;20864;-80
2022/05/10 00:07:34;;;;;;;5.72;2.95;;;;;;;;;;5082189;28;20020;-81
2022/05/10 00:09:59;;;;;;;4.32;3.08;;;;;;;;;;5084978;28;20017;-81
2022/05/10 00:12:25;;;;;;;10.93;3.00;;;;;;;;;;5085762;28;20027;-81
2022/05/10 00:14:51;;;;;;;5.68;3.45;;;;;;;;;;5085878;28;20408;-81
2022/05/10 00:17:28;;;;;;;4.47;2.90;;;;;;;;;;5083692;28;20022;-81
2022/05/10 00:19:54;;;;;;;3.38;3.08;;;;;;;;;;5081510;28;20029;-80
2022/05/10 00:22:19;;;;;;;3.22;2.88;;;;;;;;;;5072440;28;20028;-80
2022/05/10 00:24:44;;;;;;;3.53;3.22;;;;;;;;;;5071983;28;20028;-80
2022/05/10 00:27:10;;;;;;;7.55;2.78;;;;;;;;;;5070459;28;20024;-81
2022/05/10 00:29:35;;;;;;;2.50;2.30;;;;;;;;;;5071660;28;20029;-80
2022/05/10 00:32:01;;;;;;;3.00;2.70;;;;;;;;;;5070191;28;20016;-80
2022/05/10 00:34:28;;;;;;;3.15;2.85;;;;;;;;;;5071832;28;20056;-80
2022/05/10 00:36:53;;;;;;;3.80;2.88;;;;;;;;;;5070190;28;20025;-81
2022/05/10 00:39:19;;;;;;;3.75;3.40;;;;;;;;;;5071227;28;20032;-81
2022/05/10 00:41:44;;;;;;;3.40;2.67;;;;;;;;;;5053411;28;20150;-81
2022/05/10 00:44:16;;;;;;;3.42;3.13;;;;;;;;;;5070073;28;20024;-80
2022/05/10 00:46:45;;;;;;;3.60;2.90;;;;;;;;;;5070174;28;20518;-80
2022/05/10 00:49:31;;;;;;;5.57;3.20;;;;;;;;;;5071892;28;20092;-80
2022/05/10 00:52:07;;;;;;;3.55;2.92;;;;;;;;;;5069928;28;20031;-80
2022/05/10 00:54:41;;;;;;;4.82;3.08;;;;;;;;;;5069629;28;20013;-81
2022/05/10 00:57:06;;;;;;;4.30;3.33;;;;;;;;;;5070906;28;20082;-80
2022/05/10 00:59:55;;;;;;;5.95;3.13;;;;;;;;;;5069380;28;20052;-80
2022/05/10 01:02:39;;;;;;;3.72;3.25;;;;;;;;;;5070208;28;20036;-81
2022/05/10 01:05:14;;;;;;;5.07;3.42;;;;;;;;;;5070788;28;20020;-81
2022/05/10 01:07:52;;;;;;;6.35;3.13;;;;;;;;;;5069522;28;20024;-80
2022/05/10 01:10:21;;;;;;;3.53;3.08;;;;;;;;;;5070892;28;20024;-80
2022/05/10 01:13:09;;;;;;;3.30;3.00;;;;;;;;;;5070753;28;20016;-81
2022/05/10 01:15:35;;;;;;;3.65;3.20;;;;;;;;;;5070657;28;20024;-80
2022/05/10 01:18:01;;;;;;;6.03;3.40;;;;;;;;;;5070322;28;20039;-80
2022/05/10 01:20:36;;;;;;;4.93;4.00;;;;;;;;;;5070521;28;20024;-80
2022/05/10 01:23:08;;;;;;;3.53;3.25;;;;;;;;;;5069120;28;20062;-80
2022/05/10 01:25:33;;;;;;;4.00;3.30;;;;;;;;;;5069213;28;20479;-81
2022/05/10 01:28:18;;;;;;;6.07;3.22;;;;;;;;;;5070374;28;20024;-80
2022/05/10 01:30:44;;;;;;;4.00;3.03;;;;;;;;;;5068978;28;20028;-81
2022/05/10 01:33:30;;;;;;;5.88;3.03;;;;;;;;;;5068976;28;20101;-81
2022/05/10 01:36:04;;;;;;;3.75;3.17;;;;;;;;;;5068870;28;20022;-80
2022/05/10 01:38:45;;;;;;;3.28;2.97;;;;;;;;;;5068953;28;20042;-80
2022/05/10 01:41:17;;;;;;;3.72;3.35;;;;;;;;;;5070255;28;20511;-80
2022/05/10 01:43:48;;;;;;;4.82;2.95;;;;;;;;;;5069972;28;20120;-80
2022/05/10 01:46:19;;;;;;;3.67;3.05;;;;;;;;;;5068670;28;20615;-80
2022/05/10 01:48:47;;;;;;;3.38;3.08;;;;;;;;;;5069899;28;20017;-81
2022/05/10 01:51:15;;;;;;;4.28;3.30;;;;;;;;;;5068606;28;20044;-80
2022/05/10 01:53:41;;;;;;;3.60;3.30;;;;;;;;;;5069982;28;20399;-80
2022/05/10 01:56:12;;;;;;;4.50;3.20;;;;;;;;;;5069790;28;20087;-80
2022/05/10 01:58:40;;;;;;;3.25;2.95;;;;;;;;;;5068722;28;20056;-81
2022/05/10 02:01:06;;;;;;;5.13;3.45;;;;;;;;;;5069508;28;20023;-81
2022/05/10 02:03:37;;;;;;;6.78;3.13;;;;;;;;;;5069663;28;20090;-81
2022/05/10 02:06:12;;;;;;;3.50;3.20;;;;;;;;;;5068271;28;20546;-81
2022/05/10 02:08:51;;;;;;;4.38;3.25;;;;;;;;;;5069610;28;20025;-80
2022/05/10 02:11:17;;;;;;;3.35;3.00;;;;;;;;;;5069448;28;20399;-80
2022/05/10 02:13:49;;;;;;;3.60;3.30;;;;;;;;;;5069586;28;20032;-80
2022/05/10 02:16:14;;;;;;;3.50;3.20;;;;;;;;;;5067350;28;20123;-80
2022/05/10 02:19:09;;;;;;;5.40;3.38;;;;;;;;;;5069485;28;20129;-80
2022/05/10 02:21:39;;;;;;;4.25;2.83;;;;;;;;;;5068905;28;20025;-80
2022/05/10 02:24:12;;;;;;;3.70;3.25;;;;;;;;;;5067922;28;20016;-80
2022/05/10 02:26:39;;;;;;;5.25;3.47;;;;;;;;;;5068056;28;20081;-80
2022/05/10 02:29:09;;;;;;;3.22;2.92;;;;;;;;;;5069310;28;20013;-81
2022/05/10 02:33:06;;;;;;;5.40;3.20;;;;;;;;;;5069301;28;20023;-81
2022/05/10 02:34:24;;;;;;;;;;;;;;;;;;5069774;28;20274;-80
2022/05/10 02:36:49;;;;;;;4.97;3.30;;;;;;;;;;5069371;28;19912;-81
2022/05/10 02:39:15;;;;;;;4.00;3.28;;;;;;;;;;5068046;28;20299;-81
2022/05/10 02:41:40;;;;;;;3.78;3.40;;;;;;;;;;5067761;28;20506;-80
2022/05/10 02:44:06;;;;;;;4.28;3.45;;;;;;;;;;5067892;28;20625;-80
2022/05/10 02:46:31;;;;;;;3.67;3.03;;;;;;;;;;5069000;28;20021;-80
2022/05/10 02:48:56;;;;;;;4.53;3.70;;;;;;;;;;5069108;28;20028;-80
2022/05/10 02:51:22;;;;;;;4.68;3.33;;;;;;;;;;5068812;28;20487;-81
2022/05/10 02:53:48;;;;;;;4.22;3.63;;;;;;;;;;5069167;28;20107;-80
2022/05/10 02:56:14;;;;;;;4.88;3.35;;;;;;;;;;5068997;28;20097;-80
2022/05/10 02:58:58;;;;;;;3.50;3.20;;;;;;;;;;5068824;28;20427;-81
2022/05/10 03:01:38;;;;;;;3.58;3.25;;;;;;;;;;5069080;28;20028;-81
2022/05/10 03:04:04;;;;;;;3.95;3.22;;;;;;;;;;5067745;28;20100;-80
2022/05/10 03:06:30;;;;;;;3.50;3.20;;;;;;;;;;5068928;28;20041;-80
2022/05/10 03:08:57;;;;;;;5.00;3.50;;;;;;;;;;5069059;28;20008;-80
2022/05/10 03:11:23;;;;;;;3.25;2.95;;;;;;;;;;5072175;28;20048;-79
2022/05/10 03:13:49;;;;;;;3.75;3.28;;;;;;;;;;5073010;28;20055;-80
2022/05/10 03:16:18;;;;;;;3.15;2.70;;;;;;;;;;5071497;28;20020;-80
2022/05/10 03:18:43;;;;;;;3.57;3.20;;;;;;;;;;5071493;28;20037;-79
2022/05/10 03:21:09;;;;;;;3.85;3.38;;;;;;;;;;5072846;28;20395;-80
2022/05/10 03:23:34;;;;;;;4.07;3.60;;;;;;;;;;5071353;28;20035;-80
2022/05/10 03:26:00;;;;;;;3.63;3.33;;;;;;;;;;5072872;28;20478;-80
2022/05/10 03:28:26;;;;;;;4.97;3.90;;;;;;;;;;5071328;28;20502;-80
2022/05/10 03:30:51;;;;;;;7.28;4.47;;;;;;;;;;5072675;28;20025;-80
2022/05/10 03:33:18;;;;;;;8.70;5.47;;;;;;;;;;5071128;28;20031;-80
2022/05/10 03:35:43;;;;;;;8.63;4.47;;;;;;;;;;5072342;28;20013;-81
2022/05/10 03:38:08;;;;;;;4.50;4.10;;;;;;;;;;5072361;28;20554;-80
2022/05/10 03:40:34;;;;;;;4.78;3.80;;;;;;;;;;5072091;28;20027;-80
2022/05/10 03:43:01;;;;;;;3.63;3.30;;;;;;;;;;5072306;28;20035;-80
2022/05/10 03:45:26;;;;;;;5.90;4.10;;;;;;;;;;5071005;28;20016;-80
2022/05/10 03:47:52;;;;;;;5.32;4.10;;;;;;;;;;5070791;28;20426;-80
2022/05/10 03:50:19;;;;;;;5.63;4.35;;;;;;;;;;5071011;28;20025;-79
2022/05/10 03:52:45;;;;;;;4.22;3.83;;;;;;;;;;5072114;28;20097;-82
2022/05/10 03:55:12;;;;;;;5.22;4.00;;;;;;;;;;5072109;28;20064;-80
2022/05/10 03:57:38;;;;;;;5.38;3.97;;;;;;;;;;5072085;28;20031;-80
2022/05/10 04:00:05;;;;;;;9.05;3.88;;;;;;;;;;5072017;28;20032;-81
2022/05/10 04:02:30;;;;;;;6.80;3.40;;;;;;;;;;5070566;28;20024;-80
2022/05/10 04:04:55;;;;;;;4.57;4.18;;;;;;;;;;5053869;28;20094;-80
2022/05/10 04:07:21;;;;;;;4.45;3.80;;;;;;;;;;5070494;28;20016;-81
2022/05/10 04:09:46;;;;;;;5.85;4.35;;;;;;;;;;5071890;28;20158;-80
2022/05/10 04:12:12;;;;;;;4.63;3.88;;;;;;;;;;5071763;28;20043;-80
2022/05/10 04:14:37;;;;;;;4.65;3.75;;;;;;;;;;5071902;28;20025;-80
2022/05/10 04:17:03;;;;;;;3.67;3.38;;;;;;;;;;5070529;28;20079;-80
2022/05/10 04:19:29;;;;;;;5.88;4.00;;;;;;;;;;5070303;28;20427;-80
2022/05/10 04:21:54;;;;;;;4.18;3.78;;;;;;;;;;5070767;28;20040;-80
2022/05/10 04:24:20;;;;;;;3.90;3.50;;;;;;;;;;5071525;28;20021;-80
2022/05/10 04:26:45;;;;;;;5.55;3.80;;;;;;;;;;5071746;28;20467;-80
2022/05/10 04:29:11;;;;;;;13.70;3.85;;;;;;;;;;5071632;28;20005;-80
2022/05/10 04:31:37;;;;;;;4.95;3.53;;;;;;;;;;5071397;28;20749;-80
2022/05/10 04:34:02;;;;;;;4.65;3.88;;;;;;;;;;5070100;28;20016;-80
2022/05/10 04:36:27;;;;;;;6.03;4.45;;;;;;;;;;5070005;28;20023;-81
2022/05/10 04:38:53;;;;;;;4.82;4.10;;;;;;;;;;5071310;28;20035;-80
2022/05/10 04:41:24;;;;;;;5.15;4.28;;;;;;;;;;5071499;28;20055;-81
2022/05/10 04:43:50;;;;;;;5.53;4.15;;;;;;;;;;5071497;28;20017;-80
2022/05/10 04:46:15;;;;;;;8.48;4.70;;;;;;;;;;5071363;28;20506;-80
2022/05/10 04:48:41;;;;;;;5.75;4.55;;;;;;;;;;5069900;28;20025;-80
2022/05/10 04:51:06;;;;;;;10.38;3.65;;;;;;;;;;5070431;28;20028;-80
2022/05/10 04:53:32;;;;;;;4.90;3.60;;;;;;;;;;5069545;28;20020;-79
2022/05/10 04:55:58;;;;;;;6.93;4.22;;;;;;;;;;5069580;28;20886;-80
2022/05/10 04:58:23;;;;;;;8.90;3.88;;;;;;;;;;5069434;28;20446;-81
2022/05/10 05:00:49;;;;;;;5.75;4.22;;;;;;;;;;5052837;28;20012;-80
2022/05/10 05:03:14;;;;;;;5.93;4.20;;;;;;;;;;5070871;28;20187;-81
2022/05/10 05:05:39;;;;;;;4.05;3.55;;;;;;;;;;5070911;28;20027;-80
2022/05/10 05:08:05;;;;;;;8.68;4.60;;;;;;;;;;5070878;28;20020;-80
2022/05/10 05:10:30;;;;;;;5.05;3.80;;;;;;;;;;5070732;28;20020;-81
2022/05/10 05:12:56;;;;;;;6.32;4.07;;;;;;;;;;5052650;28;20059;-80
2022/05/10 05:15:21;;;;;;;5.75;4.05;;;;;;;;;;5069467;28;20157;-81
2022/05/10 05:17:47;;;;;;;7.88;4.35;;;;;;;;;;5070807;28;20073;-79
2022/05/10 05:20:12;;;;;;;5.05;4.55;;;;;;;;;;5069594;28;20082;-80
2022/05/10 05:22:38;;;;;;;5.85;4.40;;;;;;;;;;5070880;28;20120;-80
2022/05/10 05:25:04;;;;;;;4.57;4.18;;;;;;;;;;5071008;28;20020;-81
2022/05/10 05:27:30;;;;;;;7.55;4.55;;;;;;;;;;5070431;28;20099;-80
2022/05/10 05:29:55;;;;;;;6.43;4.35;;;;;;;;;;5068797;28;20111;-80
2022/05/10 05:32:22;;;;;;;14.35;5.53;;;;;;;;;;5068764;28;20020;-80
2022/05/10 05:34:47;;;;;;;4.72;4.22;;;;;;;;;;5070005;28;20035;-81
2022/05/10 05:39:57;;;;;;;5.03;4.53;;;;;;;;;;5070185;28;20036;-80
2022/05/10 05:42:22;;;;;;;6.50;4.07;;;;;;;;;;5068726;28;20025;-79
2022/05/10 05:44:48;;;;;;;5.40;3.63;;;;;;;;;;5069812;28;20021;-81
2022/05/10 05:47:13;;;;;;;7.13;3.53;;;;;;;;;;5068411;28;20017;-80
2022/05/10 05:49:39;;;;;;;4.30;3.22;;;;;;;;;;5069788;28;20059;-81
2022/05/10 05:52:04;;;;;;;3.95;3.10;;;;;;;;;;5069722;28;20601;-81
2022/05/10 05:54:31;;;;;;;5.07;3.30;;;;;;;;;;5069759;28;20056;-81
2022/05/10 05:57:01;;;;;;;5.13;3.13;;;;;;;;;;5068267;28;20448;-81
2022/05/10 05:59:26;;;;;;;2.65;2.45;;;;;;;;;;5069285;28;20488;-81
2022/05/10 06:01:52;;;;;;;3.00;2.67;;;;;;;;;;5069509;28;20099;-81
2022/05/10 06:04:17;;;;;;;6.45;2.50;;;;;;;;;;5069538;28;20522;-81
2022/05/10 06:06:43;;;;;;;3.85;2.50;;;;;;;;;;5068175;28;20020;-81
2022/05/10 06:09:08;;;;;;;2.55;2.22;;;;;;;;;;5069358;28;20031;-81
2022/05/10 06:11:34;;;;;;;3.45;2.60;;;;;;;;;;5051319;28;20490;-81
2022/05/10 06:14:00;;;;;;;3.13;2.08;;;;;;;;;;5069430;28;20634;-81
2022/05/10 06:16:26;;;;;;;3.70;2.08;;;;;;;;;;5051562;28;20028;-81
2022/05/10 06:18:51;;;;;;;4.90;2.35;;;;;;;;;;5069298;28;20415;-82
2022/05/10 06:21:16;;;;;;;2.92;2.30;;;;;;;;;;5067918;28;20023;-82
2022/05/10 06:23:42;;;;;;;2.80;1.98;;;;;;;;;;5067669;28;20028;-82
2022/05/10 06:26:08;;;;;;;4.07;2.22;;;;;;;;;;5069140;28;20444;-82
2022/05/10 06:28:33;;;;;;;7.43;1.85;;;;;;;;;;5069061;28;20044;-82
2022/05/10 06:30:58;;;;;;;4.28;1.92;;;;;;;;;;5068054;28;20146;-82
2022/05/10 06:33:24;;;;;;;4.45;2.03;;;;;;;;;;5069175;28;20525;-83
2022/05/10 06:35:49;;;;;;;5.47;1.90;;;;;;;;;;5069186;28;20009;-82
2022/05/10 06:38:19;;;;;;;2.67;2.25;;;;;;;;;;5068902;28;20039;-82
2022/05/10 06:40:45;;;;;;;2.65;2.03;;;;;;;;;;5068951;28;20051;-81
2022/05/10 06:43:11;;;;;;;2.28;1.60;;;;;;;;;;5069260;28;20545;-82
2022/05/10 06:45:37;;;;;;;3.72;2.05;;;;;;;;;;5068530;28;20092;-82
2022/05/10 06:48:03;;;;;;;2.95;1.73;;;;;;;;;;5069010;28;20280;-80
2022/05/10 06:50:30;;;;;;;4.78;1.63;;;;;;;;;;5067687;28;20017;-82
2022/05/10 06:52:57;;;;;;;2.17;1.60;;;;;;;;;;5069260;28;20029;-82
2022/05/10 06:55:23;;;;;;;2.58;1.70;;;;;;;;;;5067563;28;20071;-81
2022/05/10 06:57:49;;;;;;;2.08;1.50;;;;;;;;;;5068544;28;20059;-81
2022/05/10 07:00:16;;;;;;;2.38;1.58;;;;;;;;;;5069015;28;20024;-81
2022/05/10 07:02:42;;;;;;;2.42;1.63;;;;;;;;;;5068928;28;20001;-82
2022/05/10 07:05:08;;;;;;;1.83;1.55;;;;;;;;;;5068785;28;20025;-82
2022/05/10 07:07:34;;;;;;;1.90;1.80;;;;;;;;;;5068802;28;20024;-81
2022/05/10 07:09:59;;;;;;;2.00;1.73;;;;;;;;;;5068766;28;20591;-82
2022/05/10 07:12:25;;;;;;;8.52;2.50;;;;;;;;;;5068790;28;20020;-82
2022/05/10 07:14:50;;;;;;;3.30;1.75;;;;;;;;;;5068856;28;20013;-81
2022/05/10 07:17:16;;;;;;;2.60;2.40;;;;;;;;;;5067270;28;20089;-83
2022/05/10 07:19:41;;;;;;;3.00;1.90;;;;;;;;;;5068717;28;20503;-82
2022/05/10 07:22:06;;;;;;;2.58;1.75;;;;;;;;;;5068666;28;20020;-82
2022/05/10 07:24:32;;;;;;;3.40;2.25;;;;;;;;;;5068660;28;20012;-83
2022/05/10 07:26:57;;;;;;;1.98;1.88;;;;;;;;;;5068645;28;20457;-81
2022/05/10 07:29:23;;;;;;;3.25;1.85;;;;;;;;;;5067214;28;20020;-80
2022/05/10 07:31:48;;;;;;;3.70;1.77;;;;;;;;;;5068695;28;20035;-81
2022/05/10 07:34:14;;;;;;;18.33;2.60;;;;;;;;;;5050538;28;20529;-83
2022/05/10 07:36:39;;;;;;;3.33;1.95;;;;;;;;;;5067149;28;20016;-81
2022/05/10 07:39:06;;;;;;;5.10;2.10;;;;;;;;;;5068650;28;20108;-81
2022/05/10 07:41:31;;;;;;;1.92;1.83;;;;;;;;;;5068707;28;20012;-81
2022/05/10 07:43:57;;;;;;;3.13;2.00;;;;;;;;;;5067187;28;20036;-82
2022/05/10 07:46:23;;;;;;;2.10;1.92;;;;;;;;;;5068631;28;20016;-81
2022/05/10 07:48:48;;;;;;;4.07;1.80;;;;;;;;;;5068494;28;20021;-82
2022/05/10 07:51:14;;;;;;;4.57;1.83;;;;;;;;;;5068533;28;20058;-82
2022/05/10 07:53:41;;;;;;;2.38;2.17;;;;;;;;;;5068587;28;20475;-85
2022/05/10 07:56:06;;;;;;;2.15;2.00;;;;;;;;;;5068632;28;20024;-83
2022/05/10 07:58:32;;;;;;;2.92;2.50;;;;;;;;;;5070052;28;20040;-83
2022/05/10 08:00:59;;;;;;;4.53;2.10;;;;;;;;;;5072130;28;20008;-83
2022/05/10 08:03:25;;;;;;;2.85;2.38;;;;;;;;;;5072114;28;20471;-82
2022/05/10 08:05:51;;;;;;;2.50;2.28;;;;;;;;;;5071968;28;20020;-82
2022/05/10 08:08:17;;;;;;;4.53;2.05;;;;;;;;;;5071922;28;20092;-84
2022/05/10 08:10:43;;;;;;;3.05;2.35;;;;;;;;;;5070499;28;20020;-82
2022/05/10 08:13:13;;;;;;;5.47;2.60;;;;;;;;;;5070412;28;20034;-81
2022/05/10 08:15:38;;;;;;;3.33;2.05;;;;;;;;;;5071741;28;20027;-87
2022/05/10 08:18:04;;;;;;;4.60;2.38;;;;;;;;;;5071729;28;20028;-83
2022/05/10 08:20:30;;;;;;;2.90;2.45;;;;;;;;;;5071844;28;20016;-82
2022/05/10 08:22:55;;;;;;;2.97;2.33;;;;;;;;;;5071604;28;20074;-83
2022/05/10 08:25:20;;;;;;;3.22;2.28;;;;;;;;;;5070308;28;20024;-82
2022/05/10 08:27:46;;;;;;;3.10;2.58;;;;;;;;;;5071544;28;20017;-83
2022/05/10 08:30:11;;;;;;;5.63;2.85;;;;;;;;;;5071589;28;20011;-82
2022/05/10 08:32:38;;;;;;;2.63;2.30;;;;;;;;;;5071427;28;20025;-82
2022/05/10 08:35:04;;;;;;;3.38;2.17;;;;;;;;;;5070161;28;20032;-82
2022/05/10 08:37:29;;;;;;;5.10;2.58;;;;;;;;;;5069972;28;20024;-83
2022/05/10 08:39:55;;;;;;;4.38;2.17;;;;;;;;;;5071479;28;20025;-82
2022/05/10 08:42:23;;;;;;;3.83;2.78;;;;;;;;;;5069802;28;20472;-85
2022/05/10 08:44:57;;;;;;;4.80;2.33;;;;;;;;;;5070104;28;20040;-81
2022/05/10 08:47:23;;;;;;;2.63;2.30;;;;;;;;;;5071382;28;20111;-84
2022/05/10 08:49:57;;;;;;;3.75;2.25;;;;;;;;;;5071065;28;20059;-82
2022/05/10 08:52:27;;;;;;;4.75;2.13;;;;;;;;;;5069688;28;20021;-83
2022/05/10 08:54:53;;;;;;;2.58;2.10;;;;;;;;;;5070939;28;20530;-82
2022/05/10 08:57:27;;;;;;;2.80;1.92;;;;;;;;;;5069821;28;20070;-83
2022/05/10 08:59:55;;;;;;;6.30;2.22;;;;;;;;;;5071048;28;20601;-83
2022/05/10 09:02:35;;;;;;;4.47;2.15;;;;;;;;;;5070999;28;20031;-83
2022/05/10 09:05:00;;;;;;;2.78;2.35;;;;;;;;;;5071001;28;20497;-82
2022/05/10 09:07:44;;;;;;;3.92;2.30;;;;;;;;;;5070551;28;20103;-83
2022/05/10 09:10:28;;;;;;;2.45;2.13;;;;;;;;;;5070792;28;20020;-82
2022/05/10 09:13:08;;;;;;;2.38;2.15;;;;;;;;;;5070654;28;20048;-84
2022/05/10 09:15:39;;;;;;;2.88;2.47;;;;;;;;;;5070604;28;20081;-84
2022/05/10 09:18:04;;;;;;;;;;;;;;;;;;5070796;28;20082;-83
2022/05/10 09:20:29;;;;;;;3.83;2.10;;;;;;;;;;5070412;28;19908;-84
2022/05/10 09:23:06;;;;;;;3.78;1.95;;;;;;;;;;5069063;28;20494;-82
2022/05/10 09:25:32;;;;;;;4.18;2.28;;;;;;;;;;5070385;28;20012;-82
2022/05/10 09:27:58;;;;;;;3.08;2.30;;;;;;;;;;5070448;28;20548;-82
2022/05/10 09:30:32;;;;;;;2.72;2.13;;;;;;;;;;5070401;28;20096;-81
2022/05/10 09:36:05;;;;;;;4.93;2.00;;;;;;;;;;5070376;28;20171;-82
2022/05/10 09:38:30;;;;;;;6.03;2.35;;;;;;;;;;5070036;28;20111;-82
2022/05/10 09:40:56;;;;;;;2.45;2.10;;;;;;;;;;5070177;28;20012;-81
2022/05/10 09:43:29;;;;;;;5.30;2.60;;;;;;;;;;5070048;28;20399;-83
2022/05/10 09:46:03;;;;;;;2.80;1.85;;;;;;;;;;5068808;28;20040;-84
2022/05/10 09:48:29;;;;;;;5.07;2.20;;;;;;;;;;5069981;28;20048;-84
2022/05/10 09:50:54;;;;;;;3.33;2.20;;;;;;;;;;5069942;28;20059;-85
2022/05/10 09:53:22;;;;;;;2.28;1.90;;;;;;;;;;5070058;28;20528;-82
2022/05/10 09:55:53;;;;;;;2.45;2.25;;;;;;;;;;5069802;28;20032;-81
2022/05/10 09:58:23;;;;;;;8.93;2.65;;;;;;;;;;5068333;28;20066;-83
2022/05/10 10:00:52;;;;;;;2.03;1.92;;;;;;;;;;5068455;28;20028;-84
2022/05/10 10:03:34;;;;;;;2.55;2.33;;;;;;;;;;5069883;28;20016;-85
2022/05/10 10:06:18;;;;;;;2.83;2.20;;;;;;;;;;5068438;28;20491;-87
2022/05/10 10:08:47;;;;;;;3.47;2.40;;;;;;;;;;5070015;28;20436;-83
2022/05/10 10:11:25;;;;;;;3.15;2.28;;;;;;;;;;5069989;28;20078;-82
2022/05/10 10:13:56;;;;;;;2.63;2.30;;;;;;;;;;5070060;28;20103;-85
2022/05/10 10:16:33;;;;;;;4.90;2.22;;;;;;;;;;5074738;28;20521;-83
2022/05/10 10:19:14;;;;;;;2.50;2.30;;;;;;;;;;5071792;28;20040;-83
2022/05/10 10:21:44;;;;;;;3.35;2.00;;;;;;;;;;5070964;28;20117;-84
2022/05/10 10:24:12;;;;;;;5.38;2.25;;;;;;;;;;5069558;28;20078;-83
2022/05/10 10:26:40;;;;;;;10.07;2.42;;;;;;;;;;5068014;28;20025;-83
2022/05/10 10:29:24;;;;;;;4.65;1.98;;;;;;;;;;5069397;28;20020;-83
2022/05/10 10:31:52;;;;;;;1.92;1.83;;;;;;;;;;5069365;28;20023;-83
2022/05/10 10:34:22;;;;;;;2.83;2.40;;;;;;;;;;5069281;28;20017;-83
2022/05/10 10:36:57;;;;;;;2.33;2.13;;;;;;;;;;5067980;28;20028;-83
2022/05/10 10:39:28;;;;;;;5.85;2.03;;;;;;;;;;5069055;28;20036;-82
2022/05/10 10:41:55;;;;;;;3.45;2.70;;;;;;;;;;5067811;28;20502;-82
2022/05/10 10:44:22;;;;;;;2.35;2.15;;;;;;;;;;5069414;28;20043;-85
2022/05/10 10:47:17;;;;;;;3.80;2.17;;;;;;;;;;5069182;28;20025;-83
2022/05/10 10:49:48;;;;;;;3.10;2.50;;;;;;;;;;5049713;28;20032;-81
2022/05/10 10:52:14;;;;;;;4.45;2.35;;;;;;;;;;5066674;28;20028;-83
2022/05/10 10:54:40;;;;;;;6.72;2.55;;;;;;;;;;5066926;28;20040;-84
2022/05/10 10:57:23;;;;;;;2.60;2.40;;;;;;;;;;5066465;28;20190;-84
2022/05/10 10:59:55;;;;;;;3.50;2.38;;;;;;;;;;5066305;28;20435;-83
2022/05/10 11:02:29;;;;;;;3.08;2.20;;;;;;;;;;5049905;28;20513;-81
2022/05/10 11:05:13;;;;;;;2.60;2.38;;;;;;;;;;5067329;28;20576;-83
2022/05/10 11:07:54;;;;;;;2.30;1.90;;;;;;;;;;5066440;28;20877;-83
2022/05/10 11:10:41;;;;;;;3.10;2.30;;;;;;;;;;5049438;28;20032;-81
2022/05/10 11:13:16;;;;;;;2.30;2.10;;;;;;;;;;5066385;28;20521;-82
2022/05/10 11:15:44;;;;;;;6.75;2.50;;;;;;;;;;5049670;28;20171;-83
2022/05/10 11:18:12;;;;;;;5.38;2.20;;;;;;;;;;5050120;28;20060;-82
2022/05/10 11:20:47;;;;;;;2.72;2.00;;;;;;;;;;5067202;28;20036;-82
2022/05/10 11:23:19;;;;;;;5.90;2.17;;;;;;;;;;5066596;28;20017;-80
2022/05/10 11:26:01;;;;;;;2.50;2.30;;;;;;;;;;5067855;28;20119;-82
2022/05/10 11:28:45;;;;;;;2.83;2.03;;;;;;;;;;5069031;28;20024;-81
2022/05/10 11:31:15;;;;;;;3.45;2.42;;;;;;;;;;5070666;28;20088;-81
2022/05/10 11:34:00;;;;;;;4.18;2.17;;;;;;;;;;5071620;28;20024;-81
2022/05/10 11:36:31;;;;;;;2.35;2.15;;;;;;;;;;5072762;28;20023;-81
2022/05/10 11:38:59;;;;;;;2.25;2.05;;;;;;;;;;5072750;28;20028;-83
2022/05/10 11:41:36;;;;;;;3.08;2.05;;;;;;;;;;5071614;28;20593;-82
2022/05/10 11:44:04;;;;;;;2.03;1.92;;;;;;;;;;5072541;28;20028;-80
2022/05/10 11:46:48;;;;;;;2.25;2.05;;;;;;;;;;5072264;28;20385;-81
2022/05/10 11:49:23;;;;;;;2.50;2.03;;;;;;;;;;5072526;28;20024;-79
2022/05/10 11:51:48;;;;;;;3.42;2.20;;;;;;;;;;5072679;28;20027;-86
2022/05/10 11:54:23;;;;;;;2.00;1.85;;;;;;;;;;5071243;28;20025;-84
2022/05/10 11:56:50;;;;;;;3.38;2.25;;;;;;;;;;5072350;28;20056;-82
2022/05/10 11:59:23;;;;;;;2.50;2.15;;;;;;;;;;5071882;28;20445;-83
2022/05/10 12:01:49;;;;;;;3.15;2.20;;;;;;;;;;5072161;28;20029;-81
2022/05/10 12:04:38;;;;;;;4.88;2.05;;;;;;;;;;5071996;28;20021;-81
2022/05/10 12:07:19;;;;;;;4.15;2.08;;;;;;;;;;5071239;28;20028;-82
2022/05/10 12:10:03;;;;;;;3.47;2.08;;;;;;;;;;5070860;28;20020;-85
2022/05/10 12:12:31;;;;;;;2.28;2.08;;;;;;;;;;5072035;28;20487;-83
2022/05/10 12:23:15;;;;;;;5.78;2.15;;;;;;;;;;5071877;28;20490;-83
2022/05/10 12:25:53;;;;;;;2.08;1.98;;;;;;;;;;5070568;28;20020;-81
2022/05/10 12:28:34;;;;;;;5.43;2.35;;;;;;;;;;5071497;28;20090;-81
2022/05/10 12:31:00;;;;;;;2.30;2.10;;;;;;;;;;5070133;28;20025;-81
2022/05/10 12:33:35;;;;;;;2.30;2.08;;;;;;;;;;5071797;28;20040;-82
2022/05/10 12:36:05;;;;;;;2.70;2.50;;;;;;;;;;5070249;28;20067;-81
2022/05/10 12:38:57;;;;;;;3.60;2.47;;;;;;;;;;5071605;28;20107;-82
2022/05/10 12:41:43;;;;;;;2.33;2.05;;;;;;;;;;5069013;28;20275;-82
2022/05/10 12:44:24;;;;;;;2.90;2.28;;;;;;;;;;5070306;28;20033;-82
2022/05/10 12:47:04;;;;;;;3.85;2.30;;;;;;;;;;5071546;28;20025;-81
2022/05/10 12:49:30;;;;;;;3.80;2.47;;;;;;;;;;5071144;28;20082;-81
2022/05/10 12:52:12;;;;;;;4.00;2.63;;;;;;;;;;5071486;28;20025;-81
2022/05/10 12:54:45;;;;;;;2.40;2.20;;;;;;;;;;5070361;28;20028;-81
2022/05/10 12:57:37;;;;;;;4.05;2.40;;;;;;;;;;5071391;28;20016;-82
2022/05/10 13:00:13;;;;;;;4.32;2.70;;;;;;;;;;5071225;28;20040;-80
2022/05/10 13:02:39;;;;;;;3.85;2.20;;;;;;;;;;5071104;28;20030;-83
2022/05/10 13:05:07;;;;;;;2.45;2.25;;;;;;;;;;5071556;28;20013;-81
2022/05/10 13:07:35;;;;;;;3.10;2.80;;;;;;;;;;5070906;28;20388;-82
2022/05/10 13:10:04;;;;;;;2.65;2.40;;;;;;;;;;5070879;28;20030;-82
2022/05/10 13:12:34;;;;;;;4.72;2.83;;;;;;;;;;5071798;28;20063;-81
2022/05/10 13:15:03;;;;;;;3.00;2.42;;;;;;;;;;5070833;28;20074;-81
2022/05/10 13:17:33;;;;;;;5.50;2.67;;;;;;;;;;5070691;28;20021;-82
2022/05/10 13:20:00;;;;;;;3.35;2.60;;;;;;;;;;5069190;28;20491;-81
2022/05/10 13:22:26;;;;;;;3.17;2.40;;;;;;;;;;5070480;28;20055;-82
2022/05/10 13:24:55;;;;;;;3.10;2.60;;;;;;;;;;5070576;28;20499;-81
2022/05/10 13:27:28;;;;;;;2.53;2.33;;;;;;;;;;5069153;28;20103;-81
2022/05/10 13:29:54;;;;;;;3.42;2.50;;;;;;;;;;5070627;28;20013;-82
2022/05/10 13:32:26;;;;;;;5.40;2.75;;;;;;;;;;5069168;28;20074;-82
2022/05/10 13:34:52;;;;;;;2.42;2.22;;;;;;;;;;5070262;28;20055;-81
2022/05/10 13:37:26;;;;;;;4.78;2.25;;;;;;;;;;5070197;28;20048;-81
2022/05/10 13:39:52;;;;;;;5.05;2.72;;;;;;;;;;5070204;28;20399;-81
2022/05/10 13:42:19;;;;;;;2.55;2.35;;;;;;;;;;5070422;28;20013;-81
2022/05/10 13:44:45;;;;;;;3.47;2.60;;;;;;;;;;5070675;28;20104;-81
2022/05/10 13:47:20;;;;;;;3.03;2.72;;;;;;;;;;5070137;28;20495;-81
2022/05/10 13:49:47;;;;;;;6.57;2.58;;;;;;;;;;5068758;28;20032;-81
2022/05/10 13:52:33;;;;;;;3.80;2.72;;;;;;;;;;5068781;28;20517;-81
2022/05/10 13:54:59;;;;;;;3.47;2.47;;;;;;;;;;5069207;28;20052;-81
2022/05/10 13:57:25;;;;;;;3.65;3.10;;;;;;;;;;5069876;28;20024;-80
2022/05/10 13:59:58;;;;;;;2.85;2.60;;;;;;;;;;5068285;28;20578;-80
2022/05/10 14:02:25;;;;;;;7.60;2.67;;;;;;;;;;5069874;28;20016;-81
2022/05/10 14:04:52;;;;;;;2.58;2.30;;;;;;;;;;5070648;28;20021;-82
2022/05/10 14:07:24;;;;;;;4.63;2.60;;;;;;;;;;5069841;28;20095;-81
2022/05/10 14:09:52;;;;;;;4.70;3.05;;;;;;;;;;5068331;28;20534;-80
2022/05/10 14:12:24;;;;;;;4.63;2.70;;;;;;;;;;5069670;28;20062;-81
2022/05/10 14:14:50;;;;;;;3.92;2.75;;;;;;;;;;5069581;28;20495;-81
2022/05/10 14:17:16;;;;;;;2.85;2.63;;;;;;;;;;5069477;28;20024;-82
2022/05/10 14:19:46;;;;;;;3.13;2.58;;;;;;;;;;5069482;28;20032;-82
2022/05/10 14:22:12;;;;;;;;;;;;;;;;;;5068627;28;20024;-82
2022/05/10 14:24:38;;;;;;;7.77;3.03;;;;;;;;;;5069513;28;19909;-84
2022/05/10 14:27:05;;;;;;;5.93;2.95;;;;;;;;;;5069430;28;20475;-82
2022/05/10 14:29:35;;;;;;;4.03;2.50;;;;;;;;;;5069523;28;20103;-83
2022/05/10 14:32:03;;;;;;;5.22;2.58;;;;;;;;;;5068030;28;20475;-81
2022/05/10 14:34:48;;;;;;;6.53;2.90;;;;;;;;;;5068052;28;20037;-81
2022/05/10 14:37:18;;;;;;;4.30;3.35;;;;;;;;;;5069311;28;20581;-81
2022/05/10 14:39:43;;;;;;;5.60;3.25;;;;;;;;;;5069193;28;20140;-81
2022/05/10 14:42:21;;;;;;;5.07;3.00;;;;;;;;;;5068070;28;20132;-81
2022/05/10 14:44:46;;;;;;;9.52;2.75;;;;;;;;;;5069172;28;20043;-81
2022/05/10 14:47:23;;;;;;;6.82;3.03;;;;;;;;;;5051288;28;20028;-81
2022/05/10 14:49:50;;;;;;;7.03;2.75;;;;;;;;;;5069136;28;20525;-81
2022/05/10 14:52:32;;;;;;;3.63;2.97;;;;;;;;;;5069097;28;20024;-81
2022/05/10 14:54:59;;;;;;;8.93;3.28;;;;;;;;;;5067750;28;20032;-81
2022/05/10 14:57:38;;;;;;;5.13;3.03;;;;;;;;;;5069134;28;20025;-81
2022/05/10 15:00:24;;;;;;;9.60;3.73;;;;;;;;;;5069187;28;20048;-83
2022/05/10 15:03:02;;;;;;;10.15;3.60;;;;;;;;;;5069243;28;20249;-81
2022/05/10 15:05:28;;;;;;;6.70;3.97;;;;;;;;;;5067965;28;20020;-81
2022/05/10 15:07:53;;;;;;;6.35;3.53;;;;;;;;;;5073282;28;20027;-81
2022/05/10 15:10:19;;;;;;;4.53;3.58;;;;;;;;;;5072227;28;20433;-81